Time;durP1;ratioP1;P1;durP2;ratioP2;P2;SDS_P1;SDS_P2;PMS_P1;PMS_P2;Temp;Humidity;BMP_temperature;BMP_pressure;BME280_temperature;BME280_humidity;BME280_pressure;Samples;Min_cycle;Max_cycle;Signal;HPM_P1;HPM_P2
2022/08/21 00:00:28;;;;;;;0.60;0.60;;;18.10;88.70;;;18.20;73.32;94790.28;5017115;28;20199;-79
2022/08/21 00:03:05;;;;;;;0.40;0.40;;;18.10;88.80;;;18.17;73.01;94774.03;5033309;28;20686;-79
2022/08/21 00:05:49;;;;;;;0.50;0.50;;;18.10;88.80;;;18.19;72.83;94779.94;5025615;28;20204;-78
2022/08/21 00:08:18;;;;;;;0.45;0.45;;;18.10;88.90;;;18.19;73.18;94788.69;5033399;28;20188;-79
2022/08/21 00:10:47;;;;;;;0.43;0.43;;;18.10;89.10;;;18.18;72.84;94783.63;5016706;28;20199;-79
2022/08/21 00:13:16;;;;;;;0.45;0.45;;;18.00;88.80;;;18.16;72.92;94775.09;5014972;28;20196;-78
2022/08/21 00:15:46;;;;;;;0.45;0.45;;;18.00;88.90;;;18.15;72.84;94776.13;5013231;28;20209;-78
2022/08/21 00:18:13;;;;;;;0.50;0.50;;;18.00;89.10;;;18.14;73.13;94775.34;4997107;28;20219;-79
2022/08/21 00:20:42;;;;;;;0.40;0.40;;;18.00;89.10;;;18.15;73.29;94781.44;4996832;28;20200;-79
2022/08/21 00:23:10;;;;;;;0.40;0.40;;;18.00;89.20;;;18.16;73.42;94773.25;5013382;28;20291;-79
2022/08/21 00:25:37;;;;;;;0.30;0.30;;;18.00;89.20;;;18.15;73.55;94776.94;5005394;28;20678;-79
2022/08/21 00:28:06;;;;;;;0.57;0.57;;;18.00;89.30;;;18.16;73.36;94769.78;4996892;28;20216;-79
2022/08/21 00:30:34;;;;;;;0.47;0.47;;;18.00;89.40;;;18.17;73.04;94771.38;4996870;28;20303;-79
2022/08/21 00:33:02;;;;;;;0.50;0.50;;;18.00;89.40;;;18.17;73.72;94764.22;5002848;28;20227;-79
2022/08/21 00:35:36;;;;;;;0.45;0.45;;;18.00;89.70;;;18.22;73.23;94766.16;5014912;28;20669;-79
2022/08/21 00:38:06;;;;;;;0.40;0.40;;;18.00;89.70;;;18.23;73.38;94757.94;5032877;28;20306;-78
2022/08/21 00:40:48;;;;;;;0.40;0.40;;;18.00;89.90;;;18.25;73.68;94760.38;4998687;28;20204;-79
2022/08/21 00:43:23;;;;;;;0.40;0.40;;;18.10;89.80;;;18.27;73.48;94762.78;4981230;28;20197;-79
2022/08/21 00:45:52;;;;;;;0.40;0.40;;;18.10;89.70;;;18.27;73.82;94768.88;4996523;28;20419;-79
2022/08/21 00:48:21;;;;;;;0.47;0.47;;;18.10;89.80;;;18.26;73.25;94761.97;4996428;28;20674;-78
2022/08/21 00:51:26;;;;;;;0.40;0.40;;;18.10;89.70;;;18.24;73.17;94764.84;5012749;28;20192;-79
2022/08/21 00:53:59;;;;;;;0.50;0.50;;;18.10;90.00;;;18.28;73.32;94757.22;5029469;28;20199;-78
2022/08/21 00:56:29;;;;;;;0.40;0.40;;;18.10;89.80;;;18.29;73.32;94760.69;5026750;28;20228;-78
2022/08/21 00:58:58;;;;;;;0.50;0.50;;;18.10;89.90;;;18.31;73.26;94761.22;4996465;28;20315;-79
2022/08/21 01:01:25;;;;;;;0.47;0.47;;;18.10;89.70;;;18.32;73.50;94765.50;5045486;28;20244;-79
2022/08/21 01:03:52;;;;;;;0.40;0.40;;;18.10;89.90;;;18.31;73.41;94761.22;5015037;28;20192;-78
2022/08/21 01:06:20;;;;;;;0.50;0.50;;;18.10;89.90;;;18.30;73.19;94760.44;5013320;28;20737;-79
2022/08/21 01:08:48;;;;;;;0.40;0.40;;;18.10;89.90;;;18.29;73.35;94758.81;5016066;28;20199;-79
2022/08/21 01:11:15;;;;;;;0.50;0.50;;;18.20;89.90;;;18.27;73.25;94752.94;5009760;28;20323;-79
2022/08/21 01:13:46;;;;;;;0.60;0.60;;;18.10;89.60;;;18.23;73.33;94749.97;5001078;28;20654;-78
2022/08/21 01:16:17;;;;;;;0.52;0.52;;;18.10;89.60;;;18.21;73.53;94743.31;5031908;28;20554;-79
2022/08/21 01:18:47;;;;;;;0.43;0.43;;;18.10;89.70;;;18.19;73.49;94751.50;5031717;28;20223;-79
2022/08/21 01:21:22;;;;;;;0.50;0.50;;;18.10;89.60;;;18.15;73.64;94746.94;5028843;28;20314;-79
2022/08/21 01:23:57;;;;;;;0.40;0.40;;;18.10;89.30;;;18.10;73.60;94750.31;5031399;28;20203;-79
2022/08/21 01:26:30;;;;;;;0.43;0.43;;;18.10;89.50;;;18.06;73.78;94744.69;5001177;28;20697;-78
2022/08/21 01:29:22;;;;;;;0.55;0.55;;;18.00;89.50;;;18.03;73.31;94747.03;5012563;28;20271;-79
2022/08/21 01:31:49;;;;;;;0.50;0.50;;;18.00;90.10;;;18.04;73.69;94751.28;5011438;28;20256;-79
2022/08/21 01:34:18;;;;;;;0.50;0.50;;;18.00;89.70;;;18.04;73.90;94745.97;5009398;28;20232;-79
2022/08/21 01:36:47;;;;;;;0.52;0.52;;;18.00;89.80;;;18.01;73.92;94746.47;4996158;28;20227;-78
2022/08/21 01:39:15;;;;;;;0.50;0.50;;;17.90;89.70;;;18.02;74.25;94750.75;4979486;28;20319;-79
2022/08/21 01:41:43;;;;;;;0.50;0.50;;;18.00;89.90;;;17.99;74.19;94748.56;4995230;28;20307;-79
2022/08/21 01:44:10;;;;;;;0.50;0.50;;;18.00;90.00;;;17.96;73.71;94744.53;5012257;28;20203;-78
2022/08/21 01:46:38;;;;;;;0.50;0.50;;;17.90;89.80;;;17.93;74.45;94740.50;4995256;28;20220;-79
2022/08/21 01:49:05;;;;;;;0.45;0.45;;;17.90;90.00;;;17.93;74.35;94737.03;5011701;28;20192;-80
2022/08/21 01:51:32;;;;;;;0.50;0.50;;;17.90;90.00;;;17.90;73.97;94740.16;4998508;28;20279;-79
2022/08/21 01:54:00;;;;;;;0.50;0.50;;;17.90;90.00;;;17.91;74.02;94739.13;5011723;28;20215;-79
2022/08/21 01:56:27;;;;;;;0.40;0.40;;;17.90;90.00;;;17.88;74.04;94732.47;5027757;28;20224;-79
2022/08/21 01:58:55;;;;;;;0.50;0.50;;;17.90;90.00;;;17.89;74.25;94747.34;5010840;28;20224;-79
2022/08/21 02:01:22;;;;;;;0.40;0.40;;;17.90;90.30;;;17.88;74.27;94735.13;5031192;28;20228;-79
2022/08/21 02:03:49;;;;;;;0.50;0.50;;;17.90;90.10;;;17.88;74.38;94732.47;5017728;28;20303;-79
2022/08/21 02:06:17;;;;;;;0.50;0.50;;;17.90;90.00;;;17.88;74.65;94734.28;5010828;28;20224;-79
2022/08/21 02:08:46;;;;;;;0.50;0.50;;;17.90;90.10;;;17.88;74.78;94734.28;5011773;28;20192;-79
2022/08/21 02:11:14;;;;;;;0.50;0.50;;;17.90;90.40;;;17.86;74.63;94731.09;4994691;28;20216;-79
2022/08/21 02:13:41;;;;;;;0.50;0.50;;;17.80;90.00;;;17.84;74.59;94728.66;5002503;28;20208;-79
2022/08/21 02:16:10;;;;;;;0.50;0.50;;;17.90;90.00;;;17.85;74.39;94732.13;5027706;28;20299;-78
2022/08/21 02:18:39;;;;;;;0.45;0.45;;;17.90;90.00;;;17.83;74.87;94729.72;5013038;28;20227;-79
2022/08/21 02:21:06;;;;;;;0.50;0.50;;;17.90;90.10;;;17.85;74.57;94734.78;5020213;28;20220;-79
2022/08/21 02:23:34;;;;;;;0.40;0.40;;;17.80;90.00;;;17.83;74.64;94727.06;5012152;28;20204;-79
2022/08/21 02:26:04;;;;;;;0.50;0.50;;;17.80;90.00;;;17.83;74.74;94729.72;5019361;28;20224;-78
2022/08/21 02:28:33;;;;;;;0.40;0.40;;;17.80;90.10;;;17.86;74.72;94731.09;5010258;28;20246;-79
2022/08/21 02:31:01;;;;;;;0.50;0.50;;;17.80;90.10;;;17.84;74.81;94733.97;5024185;28;20310;-79
2022/08/21 02:33:28;;;;;;;0.50;0.50;;;17.90;90.10;;;17.87;74.82;94735.34;5021291;28;20201;-79
2022/08/21 02:35:56;;;;;;;0.45;0.45;;;17.80;90.20;;;17.87;74.72;94728.19;5023021;28;20227;-79
2022/08/21 02:38:29;;;;;;;0.50;0.50;;;17.90;90.20;;;17.89;74.87;94730.59;5023682;28;20255;-79
2022/08/21 02:40:57;;;;;;;0.50;0.50;;;17.80;90.20;;;17.91;74.88;94729.31;5008457;28;20579;-79
2022/08/21 02:43:27;;;;;;;0.40;0.40;;;17.90;90.30;;;17.92;74.81;94725.63;5003714;28;20193;-78
2022/08/21 02:45:57;;;;;;;0.45;0.45;;;17.80;90.20;;;17.92;74.75;94733.56;5025939;28;20210;-79
2022/08/21 02:48:28;;;;;;;0.50;0.50;;;17.90;90.30;;;17.95;74.90;94731.53;5013105;28;20197;-80
2022/08/21 02:51:06;;;;;;;0.50;0.50;;;17.90;90.20;;;17.88;74.81;94719.19;5013676;28;20697;-79
2022/08/21 02:53:35;;;;;;;0.40;0.40;;;17.90;90.20;;;17.93;74.48;94721.91;5013179;28;20189;-79
2022/08/21 02:56:07;;;;;;;0.45;0.45;;;17.90;90.20;;;17.96;74.45;94720.66;4996880;28;20216;-79
2022/08/21 02:58:41;;;;;;;0.40;0.40;;;17.90;90.20;;;17.96;74.40;94727.81;4982735;28;20229;-78
2022/08/21 03:01:09;;;;;;;0.50;0.50;;;17.90;90.30;;;17.95;74.99;94718.25;5020374;28;20222;-79
2022/08/21 03:03:41;;;;;;;0.50;0.50;;;17.90;90.20;;;17.97;74.67;94714.31;5010920;28;20673;-80
2022/08/21 03:06:13;;;;;;;0.50;0.50;;;17.90;90.30;;;17.97;74.89;94729.41;5003076;28;20217;-80
2022/08/21 03:08:40;;;;;;;0.47;0.47;;;17.90;90.20;;;17.96;74.89;94720.66;4998529;28;20308;-79
2022/08/21 03:11:08;;;;;;;0.50;0.50;;;17.90;90.20;;;17.96;74.95;94719.88;5004207;28;20240;-80
2022/08/21 03:13:36;;;;;;;0.40;0.40;;;17.90;90.30;;;17.98;74.70;94729.19;4998292;28;20687;-79
2022/08/21 03:16:04;;;;;;;0.40;0.40;;;17.90;90.30;;;18.01;74.79;94719.94;4998185;28;20217;-79
2022/08/21 03:18:36;;;;;;;0.50;0.50;;;17.90;90.30;;;18.00;74.98;94724.41;5015109;28;20228;-80
2022/08/21 03:21:04;;;;;;;0.40;0.40;;;17.90;90.30;;;18.04;74.60;94727.41;5009571;28;20226;-79
2022/08/21 03:23:32;;;;;;;0.50;0.50;;;17.90;90.40;;;18.05;74.81;94723.69;5034093;28;20200;-79
2022/08/21 03:26:00;;;;;;;0.50;0.50;;;17.90;90.40;;;18.09;74.91;94732.81;5012922;28;20664;-79
2022/08/21 03:28:27;;;;;;;0.40;0.40;;;17.90;90.40;;;18.10;75.03;94728.28;4999427;28;20200;-79
2022/08/21 03:30:55;;;;;;;0.50;0.50;;;17.90;90.40;;;18.10;74.84;94725.63;5029147;28;20209;-79
2022/08/21 03:33:23;;;;;;;0.50;0.50;;;17.90;90.40;;;18.13;74.92;94725.94;4998080;28;20295;-79
2022/08/21 03:36:05;;;;;;;0.50;0.50;;;18.00;90.40;;;18.15;75.03;94728.34;4981360;28;20557;-79
2022/08/21 03:38:34;;;;;;;0.45;0.45;;;18.00;90.50;;;18.13;75.11;94725.94;4997601;28;20216;-78
2022/08/21 03:41:03;;;;;;;0.52;0.52;;;18.00;90.40;;;18.18;75.15;94735.84;5012053;28;20212;-79
2022/08/21 03:43:31;;;;;;;0.50;0.50;;;18.00;90.40;;;18.17;75.03;94720.94;4997896;28;20204;-79
2022/08/21 03:46:03;;;;;;;0.50;0.50;;;18.00;90.50;;;18.21;75.08;94735.34;5014635;28;20200;-80
2022/08/21 03:48:34;;;;;;;0.50;0.50;;;18.00;90.40;;;18.20;74.72;94739.03;5010006;28;20246;-79
2022/08/21 03:51:01;;;;;;;0.50;0.50;;;18.00;90.40;;;18.21;74.79;94738.81;5024119;28;20589;-79
2022/08/21 03:53:30;;;;;;;0.50;0.50;;;18.00;90.40;;;18.20;74.57;94741.69;5032790;28;20189;-79
2022/08/21 03:55:57;;;;;;;0.50;0.50;;;18.00;90.40;;;18.21;74.64;94743.31;5033428;28;20212;-80
2022/08/21 03:58:27;;;;;;;0.40;0.40;;;18.00;90.40;;;18.23;74.52;94741.22;5022552;28;20686;-80
2022/08/21 04:00:59;;;;;;;0.50;0.50;;;18.10;90.40;;;18.23;75.04;94746.53;5015167;28;20204;-79
2022/08/21 04:03:27;;;;;;;0.50;0.50;;;18.00;90.40;;;18.23;74.57;94741.22;5033675;28;20196;-79
2022/08/21 04:05:54;;;;;;;0.50;0.50;;;18.10;90.50;;;18.20;74.47;94739.03;5017071;28;20223;-79
2022/08/21 04:08:22;;;;;;;0.50;0.50;;;18.10;90.40;;;18.21;74.97;94738.00;5030882;28;20246;-79
2022/08/21 04:10:54;;;;;;;0.50;0.50;;;18.10;90.50;;;18.23;74.97;94738.56;5013500;28;20204;-79
2022/08/21 04:13:21;;;;;;;0.40;0.40;;;18.10;90.50;;;18.24;74.98;94746.28;5030897;28;20250;-79
2022/08/21 04:15:49;;;;;;;0.50;0.50;;;18.10;90.50;;;18.26;74.93;94747.88;5033147;28;20275;-79
2022/08/21 04:18:17;;;;;;;0.45;0.45;;;18.10;90.50;;;18.27;75.15;94742.31;5011225;28;20228;-80
2022/08/21 04:20:48;;;;;;;0.50;0.50;;;18.10;90.50;;;18.28;74.91;94751.09;4996822;28;20212;-79
2022/08/21 04:23:18;;;;;;;0.50;0.50;;;18.10;90.50;;;18.28;74.78;94761.72;5016737;28;20289;-79
2022/08/21 04:25:55;;;;;;;0.40;0.40;;;18.10;90.50;;;18.23;74.93;94751.84;5012458;28;20197;-79
2022/08/21 04:28:25;;;;;;;0.50;0.50;;;18.10;90.50;;;18.29;74.83;94753.50;4995794;28;20668;-77
2022/08/21 04:30:56;;;;;;;0.50;0.50;;;18.20;90.60;;;18.34;74.76;94760.75;5031679;28;20219;-79
2022/08/21 04:33:24;;;;;;;0.50;0.50;;;18.20;90.70;;;18.34;75.04;94760.75;5033047;28;20224;-79
2022/08/21 04:35:51;;;;;;;0.47;0.47;;;18.20;90.70;;;18.37;75.19;94761.06;5030314;28;20208;-78
2022/08/21 04:38:19;;;;;;;0.40;0.40;;;18.20;90.70;;;18.39;75.10;94763.47;5006769;28;20205;-79
2022/08/21 04:40:46;;;;;;;0.50;0.50;;;18.20;90.70;;;18.42;75.18;94762.16;5020652;28;20228;-79
2022/08/21 04:43:14;;;;;;;0.50;0.50;;;18.20;90.70;;;18.42;75.30;94762.16;5032722;28;20192;-79
2022/08/21 04:45:44;;;;;;;0.45;0.45;;;18.20;90.70;;;18.42;75.05;94767.47;5019920;28;20229;-79
2022/08/21 04:48:15;;;;;;;0.50;0.50;;;18.30;90.70;;;18.45;74.94;94767.00;4994768;28;20212;-78
2022/08/21 04:51:06;;;;;;;0.40;0.40;;;18.30;90.70;;;18.46;74.86;94768.63;5009818;28;20259;-79
2022/08/21 04:53:37;;;;;;;0.55;0.55;;;18.30;90.80;;;18.47;75.04;94771.03;4977222;28;20223;-77
2022/08/21 04:56:12;;;;;;;0.50;0.50;;;18.30;90.80;;;18.51;74.73;94777.44;5018221;28;20274;-78
2022/08/21 04:58:41;;;;;;;0.50;0.50;;;18.30;90.80;;;18.51;74.83;94772.13;5032497;28;20204;-79
2022/08/21 05:01:15;;;;;;;0.50;0.50;;;18.40;90.80;;;18.48;75.03;94769.16;5010296;28;20216;-79
2022/08/21 05:03:44;;;;;;;0.50;0.50;;;18.30;90.70;;;18.51;74.91;94774.78;5032540;28;20187;-79
2022/08/21 05:06:14;;;;;;;0.50;0.50;;;18.40;90.80;;;18.54;75.01;94770.84;5032103;28;20219;-79
2022/08/21 05:08:43;;;;;;;0.45;0.45;;;18.40;90.90;;;18.59;75.34;94770.09;5030470;28;20211;-79
2022/08/21 05:11:11;;;;;;;0.40;0.40;;;18.40;90.90;;;18.60;75.52;94769.84;5031460;28;20220;-79
2022/08/21 05:13:39;;;;;;;0.40;0.40;;;18.50;91.00;;;18.61;75.14;94771.47;5000815;28;20219;-79
2022/08/21 05:16:07;;;;;;;0.40;0.40;;;18.50;90.90;;;18.61;74.87;94776.78;5022025;28;20714;-79
2022/08/21 05:18:34;;;;;;;0.50;0.50;;;18.50;90.90;;;18.62;75.43;94770.41;4995853;28;20204;-79
2022/08/21 05:21:02;;;;;;;0.40;0.40;;;18.50;91.00;;;18.65;75.01;94769.94;5012757;28;20225;-79
2022/08/21 05:23:29;;;;;;;0.43;0.43;;;18.50;90.90;;;18.67;75.50;94778.44;4996204;28;20558;-79
2022/08/21 05:25:57;;;;;;;0.40;0.40;;;18.50;90.90;;;18.70;75.06;94775.31;4979557;28;20270;-80
2022/08/21 05:28:24;;;;;;;0.50;0.50;;;18.50;90.90;;;18.68;75.30;94773.94;5029366;28;20235;-79
2022/08/21 05:30:53;;;;;;;0.40;0.40;;;18.50;90.90;;;18.72;75.44;94775.88;5028955;28;20642;-79
2022/08/21 05:33:20;;;;;;;0.40;0.40;;;18.50;90.90;;;18.71;75.28;94770.78;5027728;28;20662;-79
2022/08/21 05:35:51;;;;;;;0.40;0.40;;;18.60;90.90;;;18.76;75.16;94780.69;4979338;28;20212;-78
2022/08/21 05:38:19;;;;;;;0.40;0.40;;;18.60;90.90;;;18.76;75.09;94780.69;4996018;28;20231;-79
2022/08/21 05:40:47;;;;;;;0.40;0.40;;;18.60;91.00;;;18.79;75.78;94780.19;5011290;28;20221;-79
2022/08/21 05:43:15;;;;;;;0.40;0.40;;;18.70;91.00;;;18.81;75.70;94772.78;4995818;28;20200;-79
2022/08/21 05:45:42;;;;;;;0.40;0.40;;;18.60;91.30;;;18.85;75.26;94785.31;5028013;28;20204;-79
2022/08/21 05:48:15;;;;;;;0.50;0.50;;;18.70;91.30;;;18.84;75.33;94780.25;5011876;28;20279;-79
2022/08/21 05:50:44;;;;;;;0.40;0.40;;;18.70;90.90;;;18.81;75.30;94767.47;5025003;28;20720;-79
2022/08/21 05:53:12;;;;;;;0.40;0.40;;;18.70;90.90;;;18.86;75.24;94784.28;5015339;28;20199;-78
2022/08/21 05:55:41;;;;;;;0.40;0.40;;;18.70;91.00;;;18.89;75.39;94780.31;5031059;28;20196;-79
2022/08/21 05:58:19;;;;;;;0.40;0.40;;;18.70;90.90;;;18.91;75.35;94782.72;5022759;28;20213;-79
2022/08/21 06:00:48;;;;;;;0.50;0.50;;;18.70;90.90;;;18.90;75.63;94784.59;4989168;28;20223;-79
2022/08/21 06:03:25;;;;;;;0.50;0.50;;;18.70;90.90;;;18.92;75.41;94787.84;4993491;28;20221;-80
2022/08/21 06:05:53;;;;;;;0.50;0.50;;;18.80;91.00;;;18.92;74.99;94787.84;4995708;28;20534;-79
2022/08/21 06:08:22;;;;;;;0.50;0.50;;;18.80;91.00;;;18.94;75.51;94788.38;5016652;28;20200;-79
2022/08/21 06:10:51;;;;;;;0.43;0.43;;;18.80;91.00;;;18.96;75.43;94796.91;4995277;28;20287;-78
2022/08/21 06:13:20;;;;;;;0.40;0.40;;;18.80;91.00;;;18.99;75.13;94798.28;4995924;28;20212;-79
2022/08/21 06:15:48;;;;;;;0.40;0.40;;;18.80;91.00;;;19.00;75.20;94798.00;5012466;28;20192;-79
2022/08/21 06:18:16;;;;;;;0.57;0.57;;;18.80;91.00;;;18.99;75.33;94785.81;5025355;28;20229;-80
2022/08/21 06:20:44;;;;;;;0.50;0.50;;;18.80;91.10;;;19.04;75.71;94795.66;5016954;28;20216;-78
2022/08/21 06:23:11;;;;;;;0.50;0.50;;;18.80;91.10;;;19.00;75.22;94783.94;4995279;28;20207;-79
2022/08/21 06:25:38;;;;;;;0.45;0.45;;;18.80;91.10;;;19.10;75.58;94796.53;5048777;28;20199;-78
2022/08/21 06:28:09;;;;;;;0.50;0.50;;;18.90;91.20;;;19.08;75.62;94791.47;5034841;28;20218;-79
2022/08/21 06:30:38;;;;;;;0.50;0.50;;;18.90;91.10;;;19.12;75.54;94799.75;5021903;28;20295;-79
2022/08/21 06:33:07;;;;;;;0.50;0.50;;;18.90;91.00;;;19.13;75.58;94796.06;5014550;28;20231;-79
2022/08/21 06:35:35;;;;;;;0.40;0.40;;;18.90;91.10;;;19.16;75.78;94799.03;5030698;28;20235;-76
2022/08/21 06:38:08;;;;;;;0.50;0.50;;;18.90;91.10;;;19.18;75.53;94793.44;5004356;28;20212;-79
2022/08/21 06:40:35;;;;;;;0.40;0.40;;;19.00;91.20;;;19.22;75.85;94801.72;4978782;28;20255;-79
2022/08/21 06:43:14;;;;;;;0.40;0.40;;;19.00;91.20;;;19.24;75.41;94802.28;5018259;28;20620;-80
2022/08/21 06:45:43;;;;;;;0.40;0.40;;;19.00;91.20;;;19.23;75.88;94790.84;4979768;28;20197;-79
2022/08/21 06:48:12;;;;;;;0.40;0.40;;;19.10;91.30;;;19.30;75.88;94801.31;5007218;28;20208;-79
2022/08/21 06:50:45;;;;;;;0.50;0.50;;;19.10;91.30;;;19.32;75.52;94797.34;4988803;28;20307;-76
2022/08/21 06:53:17;;;;;;;0.40;0.40;;;19.10;91.20;;;19.36;75.73;94800.31;4992507;28;20651;-76
2022/08/21 06:55:46;;;;;;;0.50;0.50;;;19.20;91.30;;;19.40;75.95;94800.59;4976730;28;20251;-80
2022/08/21 06:58:14;;;;;;;0.40;0.40;;;19.20;91.30;;;19.41;76.44;94795.03;5006560;28;20204;-79
2022/08/21 07:00:45;;;;;;;0.40;0.40;;;19.20;91.40;;;19.48;75.62;94803.63;5004592;28;20714;-76
2022/08/21 07:03:29;;;;;;;0.40;0.40;;;19.30;91.40;;;19.51;75.56;94802.31;4974382;28;20681;-78
2022/08/21 07:05:59;;;;;;;0.50;0.50;;;19.30;91.40;;;19.54;76.00;94801.00;5010486;28;21587;-79
2022/08/21 07:08:27;;;;;;;0.47;0.47;;;19.30;91.40;;;19.53;75.44;94789.56;5010317;28;20219;-76
2022/08/21 07:10:58;;;;;;;0.40;0.40;;;19.40;91.30;;;19.55;75.62;94798.09;4991972;28;20201;-78
2022/08/21 07:13:26;;;;;;;0.43;0.43;;;19.40;91.20;;;19.56;75.30;94791.72;5033958;28;20542;-78
2022/08/21 07:15:53;;;;;;;0.40;0.40;;;19.40;91.20;;;19.54;75.44;94793.81;5017795;28;20192;-78
2022/08/21 07:18:21;;;;;;;0.40;0.40;;;19.40;91.20;;;19.55;75.35;94790.09;5005840;28;20211;-77
2022/08/21 07:20:50;;;;;;;0.45;0.45;;;19.40;91.20;;;19.55;75.13;94795.41;4998735;28;20221;-78
2022/08/21 07:23:40;;;;;;;0.50;0.50;;;19.40;91.20;;;19.56;75.20;94793.59;5020360;28;20196;-78
2022/08/21 07:26:09;;;;;;;0.50;0.50;;;19.40;91.20;;;19.58;75.69;94802.09;5022633;28;20220;-78
2022/08/21 07:28:37;;;;;;;0.50;0.50;;;19.40;91.20;;;19.54;75.68;94790.34;5021717;28;20207;-79
2022/08/21 07:31:05;;;;;;;0.50;0.50;;;19.40;91.20;;;19.60;75.35;94800.78;5050488;28;20773;-78
2022/08/21 07:33:35;;;;;;;0.40;0.40;;;19.50;91.20;;;19.56;75.34;94798.91;5017497;28;20196;-79
2022/08/21 07:36:03;;;;;;;0.50;0.50;;;19.50;91.20;;;19.63;75.66;94804.81;5034649;28;20224;-78
2022/08/21 07:38:30;;;;;;;0.40;0.40;;;19.50;91.20;;;19.64;75.76;94801.09;5033123;28;20283;-80
2022/08/21 07:41:01;;;;;;;0.40;0.40;;;19.50;91.20;;;19.65;75.75;94798.19;5030486;28;20306;-78
2022/08/21 07:43:29;;;;;;;0.50;0.50;;;19.50;91.30;;;19.67;75.77;94789.97;5014097;28;20287;-79
2022/08/21 07:45:57;;;;;;;0.40;0.40;;;19.50;91.30;;;19.70;76.04;94791.31;5013281;28;20251;-79
2022/08/21 07:48:24;;;;;;;0.40;0.40;;;19.50;91.30;;;19.76;75.55;94790.28;5008834;28;20270;-78
2022/08/21 07:50:51;;;;;;;0.40;0.40;;;19.50;91.30;;;19.75;76.02;94794.00;5013220;28;20200;-78
2022/08/21 07:53:19;;;;;;;0.40;0.40;;;19.60;91.30;;;19.78;75.61;94804.94;5014662;28;20199;-78
2022/08/21 07:55:46;;;;;;;0.45;0.45;;;19.60;91.30;;;19.78;75.58;94796.97;5013205;28;20197;-79
2022/08/21 07:58:14;;;;;;;0.40;0.40;;;19.60;91.20;;;19.77;76.11;94800.69;5009047;28;20217;-79
2022/08/21 08:00:41;;;;;;;0.40;0.40;;;19.60;91.30;;;19.81;75.51;94791.16;5020069;28;20220;-79
2022/08/21 08:03:08;;;;;;;0.40;0.40;;;19.60;91.20;;;19.81;75.67;94793.81;5023302;28;20218;-78
2022/08/21 08:05:39;;;;;;;0.40;0.40;;;19.60;91.30;;;19.84;75.36;94803.19;4998022;28;20278;-79
2022/08/21 08:08:07;;;;;;;0.38;0.38;;;19.70;91.30;;;19.83;75.46;94799.72;5028502;28;20651;-78
2022/08/21 08:10:36;;;;;;;0.40;0.40;;;19.60;91.20;;;19.86;75.56;94797.59;5030840;28;20208;-78
2022/08/21 08:13:03;;;;;;;0.50;0.50;;;19.60;91.20;;;19.83;75.57;94798.88;5004897;28;20220;-79
2022/08/21 08:15:38;;;;;;;0.50;0.50;;;19.70;91.20;;;19.83;75.82;94802.38;5013957;28;20596;-79
2022/08/21 08:18:08;;;;;;;0.40;0.40;;;19.70;91.30;;;19.88;76.19;94801.59;4996515;28;20270;-78
2022/08/21 08:20:36;;;;;;;0.40;0.40;;;19.70;91.60;;;19.92;76.50;94796.59;5020136;28;20216;-78
2022/08/21 08:23:03;;;;;;;0.52;0.52;;;19.70;91.60;;;19.99;76.54;94797.16;5028346;28;20258;-78
2022/08/21 08:25:30;;;;;;;0.40;0.40;;;19.80;91.60;;;20.05;76.65;94812.13;4999914;28;20188;-80
2022/08/21 08:28:04;;;;;;;0.40;0.40;;;19.80;91.70;;;20.13;76.83;94808.22;5002762;28;20697;-78
2022/08/21 08:30:43;;;;;;;0.40;0.40;;;19.90;91.90;;;20.23;77.34;94802.16;5022573;28;20242;-79
2022/08/21 08:33:10;;;;;;;0.40;0.40;;;20.00;92.40;;;20.27;77.25;94798.72;4980869;28;20200;-79
2022/08/21 08:35:37;;;;;;;0.40;0.40;;;20.10;92.10;;;20.36;76.34;94791.06;5015380;28;20210;-79
2022/08/21 08:38:05;;;;;;;0.40;0.40;;;20.10;91.80;;;20.38;76.54;94807.56;5018407;28;20195;-78
2022/08/21 08:41:09;;;;;;;0.40;0.40;;;20.20;91.70;;;20.38;76.01;94809.44;5013142;28;20220;-79
2022/08/21 08:43:36;;;;;;;0.40;0.40;;;20.20;91.60;;;20.37;76.18;94813.97;4996348;28;20295;-78
2022/08/21 08:46:12;;;;;;;0.40;0.40;;;20.20;91.50;;;20.40;76.07;94808.13;5003870;28;20221;-80
2022/08/21 08:48:51;;;;;;;0.40;0.40;;;20.20;91.40;;;20.43;76.00;94809.47;4993356;28;20222;-79
2022/08/21 08:51:30;;;;;;;0.38;0.38;;;20.30;91.60;;;20.47;76.24;94813.25;5010965;28;20717;-80
2022/08/21 08:54:03;;;;;;;0.40;0.40;;;20.30;91.50;;;20.54;76.80;94819.13;5011866;28;20315;-78
2022/08/21 08:56:33;;;;;;;0.40;0.40;;;20.30;91.80;;;20.59;76.48;94815.72;4993343;28;20638;-79
2022/08/21 08:59:18;;;;;;;0.40;0.40;;;20.40;91.70;;;20.62;76.39;94821.31;4996876;28;20217;-79
2022/08/21 09:01:45;;;;;;;0.40;0.40;;;20.40;91.60;;;20.65;76.21;94828.00;5047548;28;20326;-79
2022/08/21 09:04:21;;;;;;;0.40;0.40;;;20.50;91.60;;;20.69;75.90;94828.28;5031649;28;20214;-80
2022/08/21 09:07:38;;;;;;;0.40;0.40;;;20.50;91.50;;;20.72;76.22;94831.28;5011663;28;20217;-79
2022/08/21 09:10:35;;;;;;;0.40;0.40;;;20.60;91.80;;;20.81;76.97;94833.47;5002305;28;20296;-79
2022/08/21 09:13:35;;;;;;;0.40;0.40;;;20.60;92.10;;;20.89;76.79;94831.09;4996537;28;20206;-79
2022/08/21 09:16:41;;;;;;;0.30;0.30;;;20.70;92.00;;;20.97;76.78;94837.00;5015865;28;20242;-78
2022/08/21 09:19:51;;;;;;;0.40;0.40;;;20.80;91.90;;;20.98;76.23;94838.63;5017848;28;20668;-79
2022/08/21 09:22:47;;;;;;;0.40;0.40;;;20.80;91.80;;;21.00;75.89;94836.50;4997994;28;20643;-78
2022/08/21 09:25:25;;;;;;;0.40;0.40;;;20.90;91.60;;;20.95;75.97;94830.06;5024628;28;20201;-79
2022/08/21 09:27:53;;;;;;;0.40;0.40;;;20.90;91.60;;;21.01;75.97;94830.13;5013112;28;20219;-79
2022/08/21 09:30:29;;;;;;;0.35;0.35;;;20.90;91.70;;;21.10;76.67;94840.03;5006952;28;20634;-79
2022/08/21 09:32:56;;;;;;;0.30;0.30;;;20.90;91.70;;;21.16;76.95;94829.38;4998100;28;20220;-80
2022/08/21 09:35:25;;;;;;;0.30;0.30;;;21.00;92.00;;;21.23;76.84;94840.59;5018992;28;20664;-79
2022/08/21 09:38:02;;;;;;;0.30;0.30;;;21.00;92.00;;;21.27;76.94;94831.78;5031665;28;20227;-80
2022/08/21 09:40:43;;;;;;;0.50;0.50;;;21.10;91.80;;;21.31;76.14;94831.28;5015557;28;20305;-80
2022/08/21 09:43:13;;;;;;;0.40;0.40;;;21.10;91.60;;;21.34;76.40;94831.56;5011730;28;20230;-80
2022/08/21 09:45:45;;;;;;;0.40;0.40;;;21.20;91.70;;;21.34;75.53;94826.22;5013458;28;20676;-79
2022/08/21 09:48:22;;;;;;;0.30;0.30;;;21.20;91.60;;;21.35;75.98;94824.34;5007882;28;20212;-80
2022/08/21 09:51:11;;;;;;;0.40;0.40;;;21.20;91.40;;;21.34;75.31;94825.44;5031413;28;20223;-80
2022/08/21 09:53:45;;;;;;;0.40;0.40;;;21.30;91.40;;;21.37;76.23;94820.38;5023408;28;20202;-80
2022/08/21 09:59:31;;;;;;;0.40;0.40;;;21.30;91.60;;;21.41;76.08;94817.97;4997885;28;20212;-79
2022/08/21 10:02:31;;;;;;;0.30;0.30;;;21.30;91.60;;;21.43;75.55;94819.34;5014616;28;20233;-79
2022/08/21 10:05:08;;;;;;;0.40;0.40;;;21.40;91.70;;;21.44;75.49;94820.91;5011514;28;20190;-79
2022/08/21 10:07:38;;;;;;;0.50;0.50;;;21.40;91.50;;;21.44;75.57;94822.78;5011440;28;20289;-80
2022/08/21 10:10:21;;;;;;;0.40;0.40;;;21.40;91.50;;;21.45;75.30;94832.41;5011436;28;20191;-80
2022/08/21 10:13:08;;;;;;;0.40;0.40;;;21.40;91.30;;;21.42;75.26;94832.91;4998293;28;20220;-80
2022/08/21 10:16:01;;;;;;;0.40;0.40;;;21.40;91.30;;;21.37;74.77;94827.56;5011643;28;20215;-80
2022/08/21 10:18:49;;;;;;;0.40;0.40;;;21.40;91.10;;;21.34;74.86;94834.22;4979780;28;20239;-79
2022/08/21 10:21:21;;;;;;;0.40;0.40;;;21.30;91.20;;;21.28;74.58;94841.41;4994535;28;20236;-80
2022/08/21 10:24:13;;;;;;;0.30;0.30;;;21.30;91.00;;;21.22;74.66;94836.31;5030955;28;20205;-81
2022/08/21 10:27:13;;;;;;;0.30;0.30;;;21.30;91.20;;;21.22;75.40;94833.66;5023824;28;20246;-80
2022/08/21 10:30:00;;;;;;;0.30;0.30;;;21.20;91.30;;;21.20;75.01;94830.44;5012456;28;20189;-80
2022/08/21 10:32:49;;;;;;;0.40;0.40;;;21.20;91.40;;;21.16;75.07;94824.81;5005923;28;20245;-80
2022/08/21 10:35:31;;;;;;;0.40;0.40;;;21.20;91.20;;;21.15;75.03;94833.88;4984190;28;20205;-80
2022/08/21 10:38:59;;;;;;;0.40;0.40;;;21.20;91.20;;;21.05;75.09;94823.97;5000904;28;20590;-80
2022/08/21 10:41:46;;;;;;;0.40;0.40;;;21.10;91.20;;;21.14;75.56;94831.47;5024335;28;20243;-81
2022/08/21 10:44:46;;;;;;;0.40;0.40;;;21.10;91.30;;;21.13;75.76;94835.22;5012035;28;20196;-80